Terminal Aerodrome Forecast
Issued by NWS

Home | Current Version | Previous Version | Text Only | Print | Product List | Glossary On
Versions: 1 2 3 4 5 6 7 8 9 10 11 12 13 14 15 16 17
000
FTUS46 KMTR 011122
TAFOAK
TAF
KOAK 011122Z 0112/0218 27010KT P6SM SCT012
     FM011400 26010KT P6SM BKN010
     FM011800 26010KT P6SM SCT015
     FM012100 27015KT P6SM FEW010
     FM020300 28012KT P6SM SCT015
     FM020500 28010KT P6SM BKN012=

USA.gov is the U.S. government's official web portal to all federal, state and local government web resources and services.